createdAt,value
2019-01-29T08:36:03.797Z,53.20
2019-01-29T08:36:40.340Z,53.80
2019-01-29T08:37:16.775Z,53.80
2019-01-29T08:37:52.774Z,53.80
2019-01-29T08:38:28.451Z,53.80
2019-01-29T08:39:07.588Z,53.70
2019-01-29T08:39:43.284Z,53.70
2019-01-29T08:40:19.261Z,53.70
2019-01-29T08:40:54.954Z,53.70
2019-01-29T08:41:31.504Z,53.80
2019-01-29T08:42:07.548Z,53.80
2019-01-29T08:42:43.590Z,53.70
2019-01-29T08:43:19.387Z,53.60
2019-01-29T08:43:55.183Z,53.60
2019-01-29T08:44:30.884Z,53.70
2019-01-29T08:45:06.934Z,53.70
2019-01-29T08:45:42.704Z,53.60
2019-01-29T08:46:18.400Z,53.60
2019-01-29T08:46:54.087Z,53.60
2019-01-29T08:47:29.773Z,53.60
2019-01-29T08:48:05.499Z,53.50
2019-01-29T08:48:41.794Z,53.40
2019-01-29T08:49:17.829Z,53.50
2019-01-29T08:49:53.782Z,53.50
2019-01-29T08:50:29.459Z,53.40
2019-01-29T08:51:05.139Z,53.40
2019-01-29T08:51:41.298Z,53.40
2019-01-29T08:52:17.437Z,53.30
2019-01-29T08:52:53.468Z,53.30
2019-01-29T08:53:29.157Z,53.30
2019-01-29T08:54:06.252Z,53.30
2019-01-29T08:54:42.068Z,53.20
2019-01-29T08:55:18.927Z,53.30
2019-01-29T08:55:54.612Z,53.30
2019-01-29T08:56:30.890Z,53.30
2019-01-29T08:57:06.576Z,53.30
2019-01-29T08:57:45.028Z,53.30
2019-01-29T08:58:26.997Z,53.40
2019-01-29T08:58:58.141Z,53.20
2019-01-29T08:59:34.110Z,53.20
2019-01-29T09:00:11.614Z,53.20
2019-01-29T09:00:47.394Z,53.20
2019-01-29T09:01:23.043Z,53.10
2019-01-29T09:01:58.743Z,53.10
2019-01-29T09:02:34.935Z,52.80
2019-01-29T09:03:11.181Z,52.70
2019-01-29T09:03:46.882Z,52.70
2019-01-29T09:04:22.716Z,52.80
2019-01-29T09:04:58.710Z,52.80
2019-01-29T09:05:36.440Z,52.80
2019-01-29T09:06:11.839Z,52.90
2019-01-29T09:06:47.967Z,52.90
2019-01-29T09:07:25.152Z,53.00
2019-01-29T09:08:00.857Z,53.00
2019-01-29T09:08:36.829Z,52.90
2019-01-29T09:09:12.929Z,53.10
2019-01-29T09:09:48.610Z,53.10
2019-01-29T09:10:24.387Z,53.00
2019-01-29T09:11:00.352Z,53.10
2019-01-29T09:11:36.590Z,53.00
2019-01-29T09:12:12.288Z,53.10
2019-01-29T09:12:48.423Z,53.10
2019-01-29T09:13:24.274Z,53.10
2019-01-29T09:14:00.308Z,53.10
2019-01-29T09:14:35.992Z,53.10
2019-01-29T09:15:13.964Z,53.10
2019-01-29T09:15:49.945Z,53.10
2019-01-29T09:16:25.676Z,53.10
2019-01-29T09:17:01.391Z,53.10
2019-01-29T09:17:37.752Z,53.10
2019-01-29T09:18:13.837Z,53.10
2019-01-29T09:18:49.794Z,53.10
2019-01-29T09:19:25.760Z,53.10
2019-01-29T09:20:03.185Z,53.10
2019-01-29T09:20:38.890Z,53.00
2019-01-29T09:21:15.590Z,53.10
2019-01-29T09:21:52.254Z,53.10
2019-01-29T09:22:28.389Z,53.10
2019-01-29T09:23:04.312Z,53.10
2019-01-29T09:23:40.090Z,53.10
2019-01-29T09:24:16.069Z,53.70
2019-01-29T09:24:51.824Z,53.00
2019-01-29T09:25:28.495Z,53.10
2019-01-29T09:26:04.379Z,53.10
2019-01-29T09:26:40.050Z,53.10
2019-01-29T09:27:15.941Z,53.10
2019-01-29T09:27:51.668Z,53.10
2019-01-29T09:28:27.657Z,53.10
2019-01-29T09:29:03.491Z,53.10
2019-01-29T09:29:39.192Z,53.00
2019-01-29T09:30:15.736Z,53.00
2019-01-29T09:30:52.924Z,53.00
2019-01-29T09:31:29.304Z,53.00
2019-01-29T09:32:05.001Z,53.00
2019-01-29T09:32:40.750Z,53.00
2019-01-29T09:33:16.553Z,53.00
2019-01-29T09:33:52.541Z,52.90
2019-01-29T09:34:28.216Z,53.00
2019-01-29T09:35:04.310Z,53.00
2019-01-29T09:35:40.287Z,52.90
2019-01-29T09:36:16.841Z,52.90
2019-01-29T09:36:53.056Z,52.90
2019-01-29T09:37:28.838Z,52.90
2019-01-29T09:38:04.573Z,52.90
2019-01-29T09:38:40.257Z,52.90
2019-01-29T09:39:16.810Z,52.90
2019-01-29T09:39:53.066Z,52.80
2019-01-29T09:40:28.751Z,52.80
2019-01-29T09:41:04.565Z,52.70
2019-01-29T09:41:40.508Z,52.80
2019-01-29T09:42:16.425Z,52.70
2019-01-29T09:42:52.217Z,52.70
2019-01-29T09:43:28.213Z,52.70
2019-01-29T09:44:04.172Z,52.70
2019-01-29T09:44:40.460Z,52.70
2019-01-29T09:45:17.441Z,52.90
2019-01-29T09:45:53.253Z,52.80
2019-01-29T09:46:29.177Z,52.70
2019-01-29T09:47:05.232Z,52.70
2019-01-29T09:47:40.949Z,52.80
2019-01-29T09:48:17.303Z,52.80
2019-01-29T09:48:53.283Z,52.20
2019-01-29T09:49:29.211Z,52.60
2019-01-29T09:50:05.537Z,51.50
2019-01-29T09:50:41.220Z,52.40
2019-01-29T09:51:16.988Z,52.60
2019-01-29T09:51:52.731Z,52.60
2019-01-29T09:52:28.650Z,52.60
2019-01-29T09:53:04.936Z,52.30
2019-01-29T09:53:40.636Z,52.20
2019-01-29T09:54:16.575Z,52.10
2019-01-29T09:54:52.279Z,52.00
2019-01-29T09:55:29.790Z,52.00
2019-01-29T09:56:05.456Z,52.00
2019-01-29T09:56:41.452Z,52.00
2019-01-29T09:57:17.157Z,51.90
2019-01-29T09:57:52.854Z,51.70
2019-01-29T09:58:29.271Z,51.30
2019-01-29T09:59:06.111Z,51.10
2019-01-29T09:59:42.054Z,50.60
2019-01-29T10:00:21.658Z,51.10
2019-01-29T10:00:59.701Z,51.30
2019-01-29T10:01:35.455Z,51.30
2019-01-29T10:02:11.710Z,51.30
2019-01-29T10:02:47.852Z,51.30
2019-01-29T10:03:24.052Z,51.30
2019-01-29T10:04:00.917Z,51.30
2019-01-29T10:04:37.078Z,51.30
2019-01-29T10:05:13.263Z,51.30
2019-01-29T10:05:49.275Z,51.30
2019-01-29T10:06:25.259Z,51.30
2019-01-29T10:07:01.381Z,51.30
2019-01-29T10:07:38.684Z,51.30
2019-01-29T10:08:15.868Z,51.30
2019-01-29T10:08:51.618Z,51.10
2019-01-29T10:09:27.294Z,51.10
2019-01-29T10:10:03.378Z,51.20
2019-01-29T10:10:39.519Z,51.10
2019-01-29T10:11:15.977Z,50.80
2019-01-29T10:11:51.956Z,51.00
2019-01-29T10:12:27.654Z,51.00
2019-01-29T10:13:03.848Z,51.10
2019-01-29T10:13:39.948Z,51.00
2019-01-29T10:14:16.005Z,50.90
2019-01-29T10:14:51.749Z,50.90
2019-01-29T10:15:29.249Z,50.90
2019-01-29T10:16:05.580Z,50.90
2019-01-29T10:16:41.484Z,50.80
2019-01-29T10:17:17.438Z,50.80
2019-01-29T10:17:53.363Z,50.80
2019-01-29T10:18:29.070Z,50.80
2019-01-29T10:19:05.117Z,50.90
2019-01-29T10:19:41.079Z,50.80
2019-01-29T10:20:16.757Z,50.80
2019-01-29T10:20:52.461Z,50.70
2019-01-29T10:21:28.190Z,50.70
2019-01-29T10:22:03.954Z,50.80
2019-01-29T10:22:39.647Z,50.70
2019-01-29T10:23:15.486Z,50.80
2019-01-29T10:23:51.236Z,50.60
2019-01-29T10:24:27.619Z,51.40
2019-01-29T10:25:03.575Z,50.60
2019-01-29T10:25:39.343Z,50.70
2019-01-29T10:26:15.216Z,50.70
2019-01-29T10:26:51.203Z,50.70
2019-01-29T10:27:27.623Z,50.60
2019-01-29T10:28:03.731Z,50.60
2019-01-29T10:28:39.699Z,50.60
2019-01-29T10:29:15.572Z,50.60
2019-01-29T10:29:51.602Z,50.60
2019-01-29T10:30:27.314Z,50.60
2019-01-29T10:31:03.269Z,50.60
2019-01-29T10:31:38.963Z,50.40
2019-01-29T10:32:14.820Z,50.50
2019-01-29T10:32:50.592Z,50.60
2019-01-29T10:33:26.460Z,50.50
2019-01-29T10:34:02.490Z,50.60
2019-01-29T10:34:38.284Z,50.40
2019-01-29T10:35:16.009Z,50.30
2019-01-29T10:35:52.104Z,50.20
2019-01-29T10:36:27.797Z,50.40
2019-01-29T10:37:03.936Z,50.30
2019-01-29T10:37:39.616Z,50.00
2019-01-29T10:38:16.269Z,50.00
2019-01-29T10:38:52.598Z,50.00
2019-01-29T10:39:28.490Z,50.10
2019-01-29T10:40:05.186Z,50.20
2019-01-29T10:40:41.197Z,50.20
2019-01-29T10:41:17.192Z,49.90
2019-01-29T10:41:53.861Z,50.00
2019-01-29T10:42:29.915Z,50.00
2019-01-29T10:43:06.816Z,50.00
2019-01-29T10:43:42.629Z,49.90
2019-01-29T10:44:18.325Z,50.00
2019-01-29T10:44:54.286Z,49.90
2019-01-29T10:45:30.293Z,50.00
2019-01-29T10:46:06.487Z,50.00
2019-01-29T10:46:42.728Z,50.00
2019-01-29T10:47:18.425Z,50.10
2019-01-29T10:47:54.136Z,50.10
2019-01-29T10:48:29.822Z,50.20
2019-01-29T10:49:06.376Z,50.30
2019-01-29T10:49:42.065Z,50.20
2019-01-29T10:50:19.884Z,50.30
2019-01-29T10:50:55.601Z,50.30
2019-01-29T10:51:31.353Z,50.30
2019-01-29T10:52:07.325Z,50.30
2019-01-29T10:52:43.630Z,50.40
2019-01-29T10:53:19.640Z,50.30
2019-01-29T10:53:55.662Z,50.30
2019-01-29T10:54:31.377Z,50.30
2019-01-29T10:55:08.039Z,50.30
2019-01-29T10:55:47.518Z,50.30
2019-01-29T10:56:21.520Z,50.30
2019-01-29T10:56:58.196Z,50.90
2019-01-29T10:57:33.961Z,50.20
2019-01-29T10:58:09.965Z,50.40
2019-01-29T10:58:45.960Z,50.20
2019-01-29T10:59:21.636Z,50.30
2019-01-29T10:59:57.330Z,50.20
2019-01-29T11:00:38.463Z,50.20
2019-01-29T11:01:14.250Z,50.20
2019-01-29T11:01:50.286Z,50.20
2019-01-29T11:02:26.232Z,50.30
2019-01-29T11:03:01.951Z,50.20
2019-01-29T11:03:37.901Z,50.20
2019-01-29T11:04:14.672Z,50.20
2019-01-29T11:04:50.616Z,50.20
2019-01-29T11:05:26.334Z,50.20
2019-01-29T11:06:02.050Z,50.20
2019-01-29T11:06:37.874Z,50.20
2019-01-29T11:07:13.706Z,50.20
2019-01-29T11:07:49.434Z,50.20
2019-01-29T11:08:25.491Z,50.20
2019-01-29T11:09:01.494Z,50.20
2019-01-29T11:09:38.768Z,50.10
2019-01-29T11:10:14.878Z,50.10
2019-01-29T11:10:51.971Z,50.10
2019-01-29T11:11:28.827Z,50.20
2019-01-29T11:12:04.521Z,50.10
2019-01-29T11:12:40.554Z,50.00
2019-01-29T11:13:16.735Z,50.00
2019-01-29T11:13:52.829Z,50.00
2019-01-29T11:14:28.541Z,50.00
2019-01-29T11:15:04.707Z,50.00
2019-01-29T11:15:42.332Z,50.00
2019-01-29T11:16:18.045Z,50.00
2019-01-29T11:16:54.706Z,50.00
2019-01-29T11:17:31.647Z,49.90
2019-01-29T11:18:12.898Z,50.00
2019-01-29T11:18:48.688Z,50.00
2019-01-29T11:19:24.381Z,49.90
2019-01-29T11:20:00.446Z,49.90
2019-01-29T11:20:36.715Z,49.90
2019-01-29T11:21:12.405Z,49.90
2019-01-29T11:21:48.208Z,49.90
2019-01-29T11:22:25.407Z,49.90
2019-01-29T11:23:01.315Z,49.90
2019-01-29T11:23:37.325Z,49.80
2019-01-29T11:24:13.156Z,49.90
2019-01-29T11:24:48.952Z,49.80
2019-01-29T11:25:26.450Z,49.90
2019-01-29T11:26:02.575Z,49.80
2019-01-29T11:26:38.586Z,49.90
2019-01-29T11:27:14.778Z,49.80
2019-01-29T11:27:50.560Z,49.80
2019-01-29T11:28:26.334Z,49.70
2019-01-29T11:29:02.347Z,49.50
2019-01-29T11:29:38.322Z,49.70
2019-01-29T11:30:15.998Z,49.70
2019-01-29T11:30:51.938Z,49.70
2019-01-29T11:31:29.593Z,49.70
2019-01-29T11:32:05.801Z,49.80
2019-01-29T11:32:41.527Z,49.90
2019-01-29T11:33:17.725Z,49.90
2019-01-29T11:33:55.536Z,49.90
2019-01-29T11:34:31.223Z,50.00
2019-01-29T11:35:07.275Z,50.00
2019-01-29T11:35:43.058Z,50.10
2019-01-29T11:36:18.800Z,50.00
2019-01-29T11:36:54.565Z,50.10
2019-01-29T11:37:31.110Z,50.10
2019-01-29T11:38:06.899Z,50.10
2019-01-29T11:38:42.597Z,50.10
2019-01-29T11:39:18.313Z,50.20
2019-01-29T11:39:54.020Z,50.20
2019-01-29T11:40:30.040Z,50.20
2019-01-29T11:41:06.120Z,50.20
2019-01-29T11:41:42.065Z,50.30
2019-01-29T11:42:17.751Z,50.20
2019-01-29T11:42:53.721Z,50.20
2019-01-29T11:43:29.426Z,50.30
2019-01-29T11:44:05.447Z,50.30
2019-01-29T11:44:43.371Z,50.30
2019-01-29T11:45:23.452Z,50.30
2019-01-29T11:45:59.190Z,50.30
2019-01-29T11:46:35.847Z,50.40
2019-01-29T11:47:11.589Z,50.40
2019-01-29T11:47:47.274Z,50.50
2019-01-29T11:48:23.118Z,50.50
2019-01-29T11:48:58.786Z,50.40
2019-01-29T11:49:34.508Z,50.40
2019-01-29T11:50:10.473Z,50.40
2019-01-29T11:50:47.291Z,50.50
2019-01-29T11:51:23.035Z,50.50
2019-01-29T11:51:59.043Z,50.50
2019-01-29T11:52:35.481Z,50.50
2019-01-29T11:53:11.532Z,50.50
2019-01-29T11:53:49.004Z,50.50
2019-01-29T11:54:25.661Z,50.50
2019-01-29T11:55:01.372Z,50.50
2019-01-29T11:55:37.105Z,50.50
2019-01-29T11:56:14.423Z,50.50
2019-01-29T11:56:52.443Z,50.50
2019-01-29T11:57:28.141Z,50.60
2019-01-29T11:58:04.652Z,50.50
2019-01-29T11:58:40.984Z,50.50
2019-01-29T11:59:17.471Z,51.00
2019-01-29T11:59:53.470Z,50.50
2019-01-29T12:00:36.923Z,50.50
2019-01-29T12:01:17.582Z,50.60
2019-01-29T12:01:54.138Z,50.60
2019-01-29T12:02:29.904Z,50.60
2019-01-29T12:03:05.672Z,50.60
2019-01-29T12:03:41.728Z,50.50
2019-01-29T12:04:17.662Z,50.50
2019-01-29T12:04:53.366Z,50.50
2019-01-29T12:05:29.340Z,50.60
2019-01-29T12:06:05.027Z,50.60
2019-01-29T12:06:40.737Z,50.60
2019-01-29T12:07:16.617Z,50.50
2019-01-29T12:07:52.296Z,50.50
2019-01-29T12:08:28.536Z,50.50
2019-01-29T12:09:08.392Z,50.50
2019-01-29T12:09:45.393Z,50.50
2019-01-29T12:10:21.075Z,50.50
2019-01-29T12:10:56.801Z,50.60
2019-01-29T12:11:33.778Z,50.60
2019-01-29T12:12:09.522Z,50.60
2019-01-29T12:12:47.873Z,50.60
2019-01-29T12:13:23.617Z,50.60
2019-01-29T12:13:59.612Z,50.80
2019-01-29T12:14:35.290Z,50.60
2019-01-29T12:15:12.763Z,51.20
2019-01-29T12:15:48.801Z,50.60
2019-01-29T12:16:24.838Z,50.60
2019-01-29T12:17:00.499Z,50.60
2019-01-29T12:17:36.202Z,50.60
2019-01-29T12:18:12.387Z,50.70
2019-01-29T12:18:48.184Z,50.70
2019-01-29T12:19:24.191Z,50.80
2019-01-29T12:20:00.962Z,50.80
2019-01-29T12:20:36.644Z,50.80
2019-01-29T12:21:12.965Z,50.90
2019-01-29T12:21:48.651Z,50.80
2019-01-29T12:22:24.621Z,50.90
2019-01-29T12:23:00.300Z,50.80
2019-01-29T12:23:36.333Z,50.80
2019-01-29T12:24:12.553Z,50.70
2019-01-29T12:24:48.228Z,50.80
2019-01-29T12:25:23.987Z,50.80
2019-01-29T12:26:00.417Z,50.80
2019-01-29T12:26:36.521Z,50.80
2019-01-29T12:27:12.192Z,50.80
2019-01-29T12:27:48.231Z,50.80
2019-01-29T12:28:23.943Z,50.80
2019-01-29T12:28:59.628Z,50.80
2019-01-29T12:29:35.714Z,50.80
2019-01-29T12:30:14.950Z,50.80
2019-01-29T12:30:52.547Z,50.80
2019-01-29T12:31:28.500Z,51.50
2019-01-29T12:32:04.424Z,50.90
2019-01-29T12:32:40.367Z,50.80
2019-01-29T12:33:16.752Z,50.80
2019-01-29T12:33:52.445Z,50.80
2019-01-29T12:34:28.144Z,50.70
2019-01-29T12:35:04.282Z,50.60
2019-01-29T12:35:40.315Z,50.50
2019-01-29T12:36:16.541Z,50.60
2019-01-29T12:36:54.079Z,50.50
2019-01-29T12:37:30.084Z,50.60
2019-01-29T12:38:06.662Z,50.50
2019-01-29T12:38:42.376Z,50.50
2019-01-29T12:39:18.932Z,50.60
2019-01-29T12:39:54.653Z,50.50
2019-01-29T12:40:30.369Z,50.50
2019-01-29T12:41:06.185Z,50.40
2019-01-29T12:41:41.891Z,50.40
2019-01-29T12:42:17.557Z,50.50
2019-01-29T12:42:53.249Z,50.60
2019-01-29T12:43:29.260Z,50.50
2019-01-29T12:44:05.018Z,50.40
2019-01-29T12:44:40.716Z,50.50
2019-01-29T12:45:16.808Z,50.50
2019-01-29T12:45:53.412Z,50.90
2019-01-29T12:46:29.517Z,50.80
2019-01-29T12:47:05.188Z,50.70
2019-01-29T12:47:41.183Z,50.70
2019-01-29T12:48:17.698Z,51.30
2019-01-29T12:48:53.858Z,50.60
2019-01-29T12:49:29.538Z,50.60
2019-01-29T12:50:07.176Z,50.50
2019-01-29T12:50:48.540Z,50.50
2019-01-29T12:51:33.388Z,50.50
2019-01-29T12:52:18.632Z,50.60
2019-01-29T12:53:09.270Z,50.60
2019-01-29T12:53:45.229Z,50.80
2019-01-29T12:54:20.923Z,50.60
2019-01-29T12:54:56.625Z,50.40
2019-01-29T12:55:32.288Z,50.40
2019-01-29T12:56:08.327Z,50.50
2019-01-29T12:56:43.998Z,50.40
2019-01-29T12:57:20.137Z,50.50
2019-01-29T12:57:56.225Z,50.30
2019-01-29T12:58:32.255Z,50.40
2019-01-29T12:59:07.939Z,50.30
2019-01-29T12:59:43.655Z,50.50
2019-01-29T13:00:20.321Z,50.50
2019-01-29T13:00:57.835Z,50.50
2019-01-29T13:01:33.512Z,50.60
2019-01-29T13:02:09.220Z,50.50
2019-01-29T13:02:47.393Z,50.60
2019-01-29T13:03:23.111Z,50.50
2019-01-29T13:03:58.814Z,50.60
2019-01-29T13:04:34.511Z,50.60
2019-01-29T13:05:11.589Z,50.40
2019-01-29T13:05:47.283Z,50.50
2019-01-29T13:06:22.975Z,50.50
2019-01-29T13:06:58.653Z,50.50
2019-01-29T13:07:34.981Z,50.60
2019-01-29T13:08:10.898Z,50.80
2019-01-29T13:08:46.606Z,50.90
2019-01-29T13:09:22.286Z,50.50
2019-01-29T13:09:58.354Z,50.70
2019-01-29T13:10:34.396Z,50.70
2019-01-29T13:11:10.706Z,50.70
2019-01-29T13:11:46.439Z,50.80
2019-01-29T13:12:22.548Z,50.80
2019-01-29T13:12:58.599Z,50.90
2019-01-29T13:13:34.708Z,51.00
2019-01-29T13:14:11.224Z,50.80
2019-01-29T13:14:48.178Z,50.80
2019-01-29T13:15:26.018Z,51.00
2019-01-29T13:16:02.397Z,50.90
2019-01-29T13:16:38.075Z,51.00
2019-01-29T13:17:13.925Z,51.00
2019-01-29T13:17:50.149Z,50.80
2019-01-29T13:18:25.807Z,50.60
2019-01-29T13:19:01.488Z,50.70
2019-01-29T13:19:37.537Z,50.90
2019-01-29T13:20:13.487Z,51.00
2019-01-29T13:20:50.556Z,50.80
2019-01-29T13:21:26.668Z,50.90
2019-01-29T13:22:02.768Z,51.00
2019-01-29T13:22:39.031Z,51.00
2019-01-29T13:23:16.044Z,50.80
2019-01-29T13:23:52.116Z,51.40
2019-01-29T13:24:27.903Z,50.70
2019-01-29T13:25:03.685Z,50.80
2019-01-29T13:25:39.764Z,50.80
2019-01-29T13:26:16.059Z,50.60
2019-01-29T13:26:52.128Z,50.70
2019-01-29T13:27:27.895Z,50.80
2019-01-29T13:28:04.127Z,50.80
2019-01-29T13:28:39.824Z,50.80
2019-01-29T13:29:15.604Z,50.80
2019-01-29T13:29:51.437Z,50.90
2019-01-29T13:30:29.343Z,50.80
2019-01-29T13:31:05.040Z,50.90
2019-01-29T13:31:40.726Z,50.90
2019-01-29T13:32:16.724Z,50.70
2019-01-29T13:32:53.903Z,50.70
2019-01-29T13:33:29.975Z,49.70
2019-01-29T13:34:07.279Z,49.50
2019-01-29T13:34:43.011Z,50.60
2019-01-29T13:35:19.073Z,50.50
2019-01-29T13:35:54.857Z,50.40
2019-01-29T13:36:30.554Z,50.40
2019-01-29T13:37:06.507Z,50.50
2019-01-29T13:37:42.204Z,50.60
2019-01-29T13:38:18.694Z,50.60
2019-01-29T13:38:54.411Z,50.70
2019-01-29T13:39:30.170Z,50.60
2019-01-29T13:40:06.753Z,50.70
2019-01-29T13:40:42.724Z,50.60
2019-01-29T13:41:18.435Z,50.60
2019-01-29T13:41:54.212Z,50.70
2019-01-29T13:42:29.895Z,50.70
2019-01-29T13:43:06.124Z,51.20
2019-01-29T13:43:41.832Z,50.60
2019-01-29T13:44:17.506Z,50.70
2019-01-29T13:44:53.201Z,50.70
2019-01-29T13:45:29.637Z,50.70
2019-01-29T13:46:05.327Z,50.70
2019-01-29T13:46:41.044Z,50.70
2019-01-29T13:47:16.738Z,50.70
2019-01-29T13:47:54.332Z,50.80
2019-01-29T13:48:30.025Z,50.80
2019-01-29T13:49:05.783Z,50.70
2019-01-29T13:49:41.760Z,50.80
2019-01-29T13:50:22.241Z,50.80
2019-01-29T13:50:59.607Z,50.80
2019-01-29T13:51:35.569Z,50.80
2019-01-29T13:52:11.373Z,50.80
2019-01-29T13:52:47.295Z,50.80
2019-01-29T13:53:23.077Z,50.80
2019-01-29T13:54:00.153Z,50.80
2019-01-29T13:54:36.114Z,50.80
2019-01-29T13:55:13.181Z,50.90
2019-01-29T13:55:48.868Z,50.90
2019-01-29T13:56:24.571Z,50.90
2019-01-29T13:57:00.317Z,50.90
2019-01-29T13:57:36.020Z,50.90
2019-01-29T13:58:12.011Z,50.90
2019-01-29T13:58:48.057Z,50.90
2019-01-29T13:59:23.731Z,50.80
2019-01-29T13:59:59.500Z,50.80
2019-01-29T14:00:35.423Z,50.80
2019-01-29T14:01:11.526Z,50.80
2019-01-29T14:01:48.285Z,50.80
2019-01-29T14:02:24.009Z,50.80
2019-01-29T14:03:00.037Z,50.80
2019-01-29T14:03:35.724Z,50.80
2019-01-29T14:04:11.872Z,50.70
2019-01-29T14:04:49.353Z,50.80
2019-01-29T14:05:25.179Z,50.80
2019-01-29T14:06:01.334Z,51.30
2019-01-29T14:06:37.367Z,50.80
2019-01-29T14:07:13.078Z,50.70
2019-01-29T14:07:48.842Z,50.70
2019-01-29T14:08:24.881Z,50.70
2019-01-29T14:09:00.790Z,50.70
2019-01-29T14:09:38.383Z,50.70
2019-01-29T14:10:14.216Z,50.70
2019-01-29T14:10:49.992Z,50.70
2019-01-29T14:11:26.023Z,50.70
2019-01-29T14:12:01.707Z,50.70
2019-01-29T14:12:39.249Z,50.70
2019-01-29T14:13:14.963Z,50.70
2019-01-29T14:13:52.702Z,50.70
2019-01-29T14:14:32.913Z,50.70
2019-01-29T14:15:11.443Z,50.70
2019-01-29T14:15:49.828Z,50.60
2019-01-29T14:16:26.067Z,50.60
2019-01-29T14:17:01.744Z,50.60
2019-01-29T14:17:37.439Z,50.60
2019-01-29T14:18:14.045Z,50.60
2019-01-29T14:18:49.852Z,50.60
2019-01-29T14:19:25.560Z,50.70
2019-01-29T14:20:02.000Z,50.60
2019-01-29T14:20:37.690Z,50.60
2019-01-29T14:21:13.450Z,50.60
2019-01-29T14:21:49.156Z,50.60
2019-01-29T14:22:24.865Z,50.70
2019-01-29T14:23:00.808Z,50.60
2019-01-29T14:23:36.546Z,50.60
2019-01-29T14:24:12.317Z,50.60
2019-01-29T14:24:48.001Z,50.60
2019-01-29T14:25:23.728Z,50.60
2019-01-29T14:25:59.472Z,50.60
2019-01-29T14:26:35.555Z,50.60
2019-01-29T14:27:11.576Z,50.60
2019-01-29T14:27:47.235Z,50.60
2019-01-29T14:28:23.284Z,50.60
2019-01-29T14:28:59.555Z,50.60
2019-01-29T14:29:35.294Z,50.60
2019-01-29T14:30:17.071Z,50.60
2019-01-29T14:30:52.740Z,50.60
2019-01-29T14:31:28.423Z,50.60
2019-01-29T14:32:04.453Z,50.60
2019-01-29T14:32:40.497Z,50.60
2019-01-29T14:33:16.789Z,50.60
2019-01-29T14:33:52.562Z,50.60
2019-01-29T14:34:28.590Z,50.60
2019-01-29T14:35:05.395Z,50.60
2019-01-29T14:35:41.190Z,50.60
2019-01-29T14:36:17.240Z,50.60
2019-01-29T14:36:52.951Z,50.50
2019-01-29T14:37:28.707Z,50.60
2019-01-29T14:38:46.226Z,50.60
2019-01-29T14:40:05.712Z,50.60
2019-01-29T14:40:41.421Z,50.60
2019-01-29T14:41:18.868Z,50.60
2019-01-29T14:41:54.581Z,50.60
2019-01-29T14:42:30.324Z,50.50
2019-01-29T14:43:09.309Z,50.50
2019-01-29T14:43:53.412Z,50.50
2019-01-29T14:44:41.864Z,50.50
2019-01-29T14:45:21.693Z,50.50
2019-01-29T14:45:58.539Z,50.50
2019-01-29T14:46:34.508Z,50.50
2019-01-29T14:47:10.515Z,50.60
2019-01-29T14:47:46.567Z,50.50
2019-01-29T14:48:22.429Z,50.40
2019-01-29T14:48:58.168Z,50.50
2019-01-29T14:49:34.007Z,50.40
2019-01-29T14:50:11.339Z,50.60
2019-01-29T14:50:47.281Z,50.50
2019-01-29T14:51:23.084Z,50.50
2019-01-29T14:51:58.871Z,50.40
2019-01-29T14:52:34.867Z,50.40
2019-01-29T14:53:11.157Z,50.40
2019-01-29T14:53:46.873Z,50.50
2019-01-29T14:54:22.684Z,50.40
2019-01-29T14:54:58.559Z,50.40
2019-01-29T14:55:34.401Z,50.40
2019-01-29T14:56:10.103Z,50.40
2019-01-29T14:56:45.805Z,50.40
2019-01-29T14:57:21.528Z,50.50
2019-01-29T14:58:03.237Z,50.40
2019-01-29T14:58:39.030Z,50.20
2019-01-29T14:59:14.796Z,50.40
2019-01-29T14:59:50.571Z,50.40
2019-01-29T15:00:26.488Z,50.40
2019-01-29T15:01:02.500Z,50.40
2019-01-29T15:01:38.438Z,50.40
2019-01-29T15:02:15.399Z,50.30
2019-01-29T15:02:52.959Z,50.40
2019-01-29T15:03:29.257Z,50.40
2019-01-29T15:04:05.281Z,50.40
2019-01-29T15:04:41.357Z,50.30
2019-01-29T15:05:17.082Z,50.30
2019-01-29T15:05:53.427Z,50.40
2019-01-29T15:06:32.418Z,50.40
2019-01-29T15:07:06.939Z,50.30
2019-01-29T15:07:42.808Z,50.40
2019-01-29T15:08:18.840Z,50.40
2019-01-29T15:08:54.812Z,50.40
2019-01-29T15:09:32.428Z,50.30
2019-01-29T15:10:10.517Z,50.40
2019-01-29T15:10:46.575Z,50.40
2019-01-29T15:11:22.250Z,50.40
2019-01-29T15:11:57.961Z,50.40
2019-01-29T15:12:33.689Z,50.40
2019-01-29T15:13:10.167Z,50.40
2019-01-29T15:13:45.835Z,50.40
2019-01-29T15:14:21.945Z,50.30
2019-01-29T15:14:58.688Z,50.30
2019-01-29T15:15:36.660Z,50.40
2019-01-29T15:16:22.396Z,50.40
2019-01-29T15:17:07.090Z,50.40
2019-01-29T15:17:49.354Z,50.20
2019-01-29T15:18:31.585Z,50.20
2019-01-29T15:19:13.151Z,50.30
2019-01-29T15:19:48.988Z,50.20
2019-01-29T15:20:24.696Z,50.20
2019-01-29T15:21:00.745Z,50.30
2019-01-29T15:21:37.928Z,50.30
2019-01-29T15:22:14.191Z,50.30
2019-01-29T15:22:49.971Z,50.20
2019-01-29T15:23:26.309Z,50.30
2019-01-29T15:24:02.259Z,50.30
2019-01-29T15:24:38.824Z,50.30
2019-01-29T15:25:15.078Z,50.20
2019-01-29T15:25:51.124Z,50.30
2019-01-29T15:26:26.787Z,50.30
2019-01-29T15:27:05.878Z,50.30
2019-01-29T15:27:40.191Z,50.30
2019-01-29T15:28:15.910Z,50.30
2019-01-29T15:28:51.988Z,50.30
2019-01-29T15:29:27.724Z,50.30
2019-01-29T15:30:03.406Z,50.90
2019-01-29T15:30:39.211Z,50.20
2019-01-29T15:31:16.467Z,50.30
2019-01-29T15:31:52.472Z,50.20
2019-01-29T15:32:29.113Z,50.20
2019-01-29T15:33:05.192Z,50.20
2019-01-29T15:33:41.534Z,50.30
2019-01-29T15:34:17.784Z,50.30
2019-01-29T15:34:53.542Z,50.20
2019-01-29T15:35:29.579Z,50.30
2019-01-29T15:36:05.720Z,50.20
2019-01-29T15:36:44.092Z,50.20
2019-01-29T15:37:19.695Z,50.30
2019-01-29T15:37:55.394Z,50.20
2019-01-29T15:38:31.345Z,50.30
2019-01-29T15:39:08.970Z,50.20
2019-01-29T15:39:46.420Z,50.10
2019-01-29T15:40:22.158Z,50.10
2019-01-29T15:40:57.879Z,50.20
2019-01-29T15:41:33.845Z,50.20
2019-01-29T15:42:09.756Z,50.10
2019-01-29T15:42:45.597Z,49.70
2019-01-29T15:43:21.282Z,50.20
2019-01-29T15:43:56.958Z,50.10
2019-01-29T15:44:32.680Z,50.20
2019-01-29T15:45:12.494Z,50.10
2019-01-29T15:45:48.361Z,50.10
2019-01-29T15:46:24.306Z,50.20
2019-01-29T15:47:00.064Z,50.10
2019-01-29T15:47:35.812Z,50.10
2019-01-29T15:48:13.204Z,50.10
2019-01-29T15:48:50.956Z,50.10
2019-01-29T15:49:26.657Z,49.80
2019-01-29T15:50:02.333Z,50.10
2019-01-29T15:50:38.190Z,50.10
2019-01-29T15:51:13.908Z,50.10
2019-01-29T15:51:49.609Z,50.10
2019-01-29T15:52:25.531Z,50.10
2019-01-29T15:53:01.255Z,50.10
2019-01-29T15:53:36.993Z,50.10
2019-01-29T15:54:12.925Z,50.10
2019-01-29T15:54:49.120Z,50.10
2019-01-29T15:55:25.083Z,50.10
2019-01-29T15:56:01.319Z,50.80
2019-01-29T15:56:37.205Z,50.10
2019-01-29T15:57:14.345Z,50.10
2019-01-29T15:57:50.391Z,50.10
2019-01-29T15:58:26.308Z,50.10
2019-01-29T15:59:02.482Z,50.10
2019-01-29T15:59:43.092Z,50.20
2019-01-29T16:00:22.336Z,50.20
2019-01-29T16:00:59.475Z,50.10
2019-01-29T16:01:35.372Z,50.10
2019-01-29T16:02:11.080Z,50.10
2019-01-29T16:02:47.153Z,50.10
2019-01-29T16:03:23.206Z,50.10
2019-01-29T16:03:59.226Z,50.10
2019-01-29T16:04:35.439Z,50.10
2019-01-29T16:05:15.653Z,50.10
2019-01-29T16:05:52.104Z,50.10
2019-01-29T16:06:28.293Z,50.20
2019-01-29T16:07:04.332Z,50.10
2019-01-29T16:07:40.550Z,50.10
2019-01-29T16:08:16.756Z,50.00
2019-01-29T16:08:52.693Z,50.10
2019-01-29T16:09:29.087Z,50.10
2019-01-29T16:10:07.893Z,50.20
2019-01-29T16:10:44.583Z,50.00
2019-01-29T16:11:21.196Z,50.00
2019-01-29T16:11:57.608Z,50.10
2019-01-29T16:12:33.624Z,50.00
2019-01-29T16:13:10.033Z,50.20
2019-01-29T16:13:46.503Z,50.10
2019-01-29T16:14:24.000Z,50.00
2019-01-29T16:14:59.744Z,50.10
2019-01-29T16:15:35.632Z,50.10
2019-01-29T16:16:11.443Z,50.10
2019-01-29T16:16:47.438Z,50.00
2019-01-29T16:17:23.529Z,50.10
2019-01-29T16:18:00.717Z,50.10
2019-01-29T16:18:37.838Z,50.10
2019-01-29T16:19:13.568Z,50.10
2019-01-29T16:19:49.260Z,50.10
2019-01-29T16:20:25.454Z,50.10
2019-01-29T16:21:01.803Z,50.10
2019-01-29T16:21:37.821Z,50.10
2019-01-29T16:22:13.529Z,50.10
2019-01-29T16:22:49.791Z,50.00
2019-01-29T16:23:25.999Z,50.10
2019-01-29T16:24:01.747Z,50.10
2019-01-29T16:24:38.634Z,50.10
2019-01-29T16:25:15.330Z,50.10